Time;durP1;ratioP1;P1;durP2;ratioP2;P2;SDS_P1;SDS_P2;PMS_P1;PMS_P2;Temp;Humidity;BMP_temperature;BMP_pressure;BME280_temperature;BME280_humidity;BME280_pressure;Samples;Min_cycle;Max_cycle;Signal;HPM_P1;HPM_P2
2021/01/30 11:31:59;;;;;;;21.58;15.23;;;;;;;;;;5013143;28;20392;-66
2021/01/30 11:34:25;;;;;;;19.25;14.20;;;;;;;;;;5013023;28;20045;-66
2021/01/30 11:36:51;;;;;;;23.25;14.75;;;;;;;;;;5013103;28;20068;-66
2021/01/30 11:39:23;;;;;;;24.83;16.15;;;;;;;;;;5013144;28;20072;-66
2021/01/30 11:41:48;;;;;;;48.10;34.08;;;;;;;;;;5013098;28;20026;-66
2021/01/30 11:44:14;;;;;;;41.88;26.25;;;;;;;;;;5013230;28;20467;-66
2021/01/30 11:46:41;;;;;;;20.00;13.65;;;;;;;;;;5013081;28;20029;-66
2021/01/30 11:49:08;;;;;;;17.15;12.70;;;;;;;;;;5013068;28;20026;-66
2021/01/30 11:51:33;;;;;;;19.95;14.07;;;;;;;;;;5012728;28;20121;-66
2021/01/30 11:53:59;;;;;;;42.58;26.48;;;;;;;;;;5013958;28;20060;-68
2021/01/30 11:56:25;;;;;;;22.10;14.65;;;;;;;;;;5015219;28;20060;-67
2021/01/30 11:58:50;;;;;;;27.85;16.80;;;;;;;;;;5015089;28;20014;-67
2021/01/30 12:01:16;;;;;;;21.95;13.55;;;;;;;;;;5015965;28;20037;-68
2021/01/30 12:03:41;;;;;;;16.08;11.23;;;;;;;;;;5016254;28;20029;-67
2021/01/30 12:06:07;;;;;;;20.17;12.23;;;;;;;;;;5015947;28;20524;-67
2021/01/30 12:08:32;;;;;;;27.00;16.88;;;;;;;;;;5016179;28;20392;-67
2021/01/30 12:10:58;;;;;;;227.13;97.32;;;;;;;;;;5016200;28;20021;-67
2021/01/30 12:13:24;;;;;;;115.55;50.25;;;;;;;;;;5014695;28;20160;-67
2021/01/30 12:15:50;;;;;;;74.50;29.60;;;;;;;;;;5016043;28;20034;-67
2021/01/30 12:18:17;;;;;;;61.40;27.95;;;;;;;;;;5015451;28;20517;-67
2021/01/30 12:20:43;;;;;;;120.95;45.15;;;;;;;;;;5016198;28;20030;-67
2021/01/30 12:23:09;;;;;;;92.53;40.95;;;;;;;;;;5016466;28;20221;-67
2021/01/30 12:25:35;;;;;;;19.30;12.23;;;;;;;;;;5016196;28;20030;-67
2021/01/30 12:28:01;;;;;;;19.90;12.05;;;;;;;;;;5014863;28;20022;-67
2021/01/30 12:30:29;;;;;;;22.00;13.30;;;;;;;;;;5016301;28;20034;-67
2021/01/30 12:32:54;;;;;;;69.93;26.60;;;;;;;;;;5015781;28;20025;-67
2021/01/30 12:35:24;;;;;;;24.25;15.50;;;;;;;;;;5015815;28;20026;-67
2021/01/30 12:37:50;;;;;;;53.35;22.55;;;;;;;;;;5015856;28;20014;-67
2021/01/30 12:40:17;;;;;;;26.63;15.05;;;;;;;;;;5015850;28;20472;-67
2021/01/30 12:42:42;;;;;;;28.30;16.25;;;;;;;;;;5014397;28;20096;-67
2021/01/30 12:45:09;;;;;;;44.90;22.80;;;;;;;;;;5015550;28;20484;-66
2021/01/30 12:47:35;;;;;;;27.00;15.55;;;;;;;;;;5014622;28;20026;-66
2021/01/30 12:50:00;;;;;;;21.02;12.45;;;;;;;;;;5028616;28;20071;-66
2021/01/30 12:52:27;;;;;;;18.70;11.60;;;;;;;;;;5034175;28;20120;-66
2021/01/30 12:54:52;;;;;;;17.80;11.40;;;;;;;;;;5033241;28;20029;-66
2021/01/30 12:57:18;;;;;;;33.47;17.55;;;;;;;;;;5031360;28;20365;-67
2021/01/30 12:59:44;;;;;;;23.70;15.25;;;;;;;;;;5031459;28;20376;-67
2021/01/30 13:02:10;;;;;;;27.65;15.30;;;;;;;;;;5034116;28;20029;-66
2021/01/30 13:04:35;;;;;;;24.30;14.95;;;;;;;;;;5033851;28;20030;-67
2021/01/30 13:07:01;;;;;;;28.05;15.43;;;;;;;;;;5034199;28;20017;-67
2021/01/30 13:09:26;;;;;;;38.47;19.30;;;;;;;;;;5034812;28;20037;-64
2021/01/30 13:11:52;;;;;;;21.63;14.45;;;;;;;;;;5034867;28;20029;-63
2021/01/30 13:14:18;;;;;;;20.27;13.02;;;;;;;;;;5034630;28;20029;-62
2021/01/30 13:16:44;;;;;;;22.55;14.00;;;;;;;;;;5034857;28;20018;-62
2021/01/30 13:19:10;;;;;;;28.85;17.30;;;;;;;;;;5033624;28;20502;-63
2021/01/30 13:21:36;;;;;;;17.20;12.00;;;;;;;;;;5034376;28;20063;-63
2021/01/30 13:24:01;;;;;;;19.83;12.05;;;;;;;;;;5034789;28;20036;-63
2021/01/30 13:26:27;;;;;;;20.98;14.23;;;;;;;;;;5034407;28;20028;-63
2021/01/30 13:28:52;;;;;;;18.15;11.85;;;;;;;;;;5034684;28;20539;-66
2021/01/30 13:31:18;;;;;;;19.38;11.70;;;;;;;;;;5034645;28;20048;-64
2021/01/30 13:33:44;;;;;;;24.30;13.98;;;;;;;;;;5034380;28;20030;-63
2021/01/30 13:36:09;;;;;;;21.40;13.63;;;;;;;;;;5033156;28;20025;-63
2021/01/30 13:38:35;;;;;;;27.63;16.88;;;;;;;;;;5034523;28;20068;-62
2021/01/30 13:41:00;;;;;;;31.63;17.77;;;;;;;;;;5034551;28;20022;-62
2021/01/30 13:43:26;;;;;;;19.00;12.13;;;;;;;;;;5034596;28;20112;-63
2021/01/30 13:45:51;;;;;;;23.45;14.30;;;;;;;;;;5034250;28;20025;-63
2021/01/30 13:48:17;;;;;;;15.35;9.40;;;;;;;;;;5034074;28;20032;-63
2021/01/30 13:50:43;;;;;;;18.05;11.65;;;;;;;;;;5034013;28;20025;-63
2021/01/30 13:53:09;;;;;;;17.38;11.02;;;;;;;;;;5033055;28;20025;-63
2021/01/30 13:55:34;;;;;;;17.48;11.55;;;;;;;;;;5034107;28;20009;-64
2021/01/30 13:58:00;;;;;;;17.45;11.25;;;;;;;;;;5033057;28;20022;-63
2021/01/30 14:00:26;;;;;;;22.35;14.10;;;;;;;;;;5031384;28;20419;-63
2021/01/30 14:02:51;;;;;;;17.63;11.48;;;;;;;;;;5033624;28;20094;-63
2021/01/30 14:05:25;;;;;;;19.73;12.82;;;;;;;;;;5033935;28;20025;-64
2021/01/30 14:07:51;;;;;;;18.52;10.20;;;;;;;;;;5032564;28;20044;-64
2021/01/30 14:10:20;;;;;;;20.08;11.48;;;;;;;;;;5033688;28;20025;-64
2021/01/30 14:12:46;;;;;;;26.45;14.35;;;;;;;;;;5033682;28;20492;-64
2021/01/30 14:15:12;;;;;;;21.80;12.98;;;;;;;;;;5033709;28;20020;-64
2021/01/30 14:17:37;;;;;;;20.02;12.23;;;;;;;;;;5033260;28;20072;-64
2021/01/30 14:20:03;;;;;;;15.63;11.50;;;;;;;;;;5033710;28;20037;-64
2021/01/30 14:22:29;;;;;;;20.60;12.65;;;;;;;;;;5034032;28;20017;-64
2021/01/30 14:24:54;;;;;;;18.55;11.93;;;;;;;;;;5033564;28;20147;-64
2021/01/30 14:27:21;;;;;;;21.23;13.73;;;;;;;;;;5032322;28;20503;-64
2021/01/30 14:29:50;;;;;;;18.95;13.20;;;;;;;;;;5032290;28;20025;-63
2021/01/30 14:32:16;;;;;;;22.98;15.95;;;;;;;;;;5033630;28;20036;-64
2021/01/30 14:34:42;;;;;;;33.65;19.85;;;;;;;;;;5033476;28;20019;-65
2021/01/30 14:37:07;;;;;;;24.63;14.45;;;;;;;;;;5032078;28;20029;-65
2021/01/30 14:39:33;;;;;;;39.95;22.45;;;;;;;;;;5033555;28;20021;-65
2021/01/30 14:41:59;;;;;;;48.95;24.90;;;;;;;;;;5033520;28;20029;-65
2021/01/30 14:44:25;;;;;;;58.67;28.63;;;;;;;;;;5033621;28;20067;-64
2021/01/30 14:46:51;;;;;;;46.05;25.08;;;;;;;;;;5033610;28;20029;-64
2021/01/30 14:49:16;;;;;;;40.33;21.80;;;;;;;;;;5032237;28;20435;-64
2021/01/30 14:51:42;;;;;;;30.75;19.48;;;;;;;;;;5033622;28;20072;-64
2021/01/30 14:54:07;;;;;;;57.15;28.67;;;;;;;;;;5033519;28;20063;-65
2021/01/30 14:56:33;;;;;;;59.92;30.73;;;;;;;;;;5032122;28;20071;-64
2021/01/30 14:58:58;;;;;;;44.72;24.75;;;;;;;;;;5032506;28;20369;-64
2021/01/30 15:01:24;;;;;;;48.45;27.35;;;;;;;;;;5033327;28;20026;-65
2021/01/30 15:03:49;;;;;;;39.83;24.10;;;;;;;;;;5033373;28;20061;-65
2021/01/30 15:06:15;;;;;;;33.83;21.38;;;;;;;;;;5031825;28;20037;-64
2021/01/30 15:08:40;;;;;;;33.05;18.15;;;;;;;;;;5032820;28;20036;-64
2021/01/30 15:11:06;;;;;;;33.20;21.33;;;;;;;;;;5033160;28;20033;-65
2021/01/30 15:13:32;;;;;;;37.63;22.58;;;;;;;;;;5033286;28;20112;-64
2021/01/30 15:15:57;;;;;;;33.17;21.65;;;;;;;;;;5033261;28;20052;-65
2021/01/30 15:18:23;;;;;;;37.00;22.67;;;;;;;;;;5030963;28;20527;-65
2021/01/30 15:20:49;;;;;;;40.92;23.42;;;;;;;;;;5033063;28;20026;-65
2021/01/30 15:23:15;;;;;;;40.15;24.00;;;;;;;;;;5032934;28;20036;-65
2021/01/30 15:25:41;;;;;;;32.65;21.45;;;;;;;;;;5032897;28;20035;-65
2021/01/30 15:28:06;;;;;;;35.40;20.23;;;;;;;;;;5033186;28;20033;-65
2021/01/30 15:30:33;;;;;;;34.22;20.45;;;;;;;;;;5036796;28;20025;-66
2021/01/30 15:32:59;;;;;;;38.90;22.92;;;;;;;;;;5036826;28;20013;-65
2021/01/30 15:35:25;;;;;;;31.08;18.33;;;;;;;;;;5036695;28;20025;-65
2021/01/30 15:37:50;;;;;;;46.38;27.55;;;;;;;;;;5036834;28;20021;-65
2021/01/30 15:40:16;;;;;;;39.38;24.98;;;;;;;;;;5036583;28;20471;-65
2021/01/30 15:42:42;;;;;;;39.92;23.90;;;;;;;;;;5035356;28;20071;-65
2021/01/30 15:45:08;;;;;;;35.83;23.05;;;;;;;;;;5036269;28;20033;-65
2021/01/30 15:47:33;;;;;;;42.22;24.77;;;;;;;;;;5036288;28;20029;-65
2021/01/30 15:49:59;;;;;;;45.05;26.42;;;;;;;;;;5035200;28;20029;-65
2021/01/30 15:52:25;;;;;;;40.33;23.63;;;;;;;;;;5035017;28;20024;-51
2021/01/30 15:54:52;;;;;;;37.63;23.95;;;;;;;;;;5035943;28;20044;-64
2021/01/30 15:57:18;;;;;;;35.35;23.45;;;;;;;;;;5035168;28;20084;-64
2021/01/30 15:59:43;;;;;;;42.45;24.55;;;;;;;;;;5036405;28;20026;-65
2021/01/30 16:02:09;;;;;;;38.47;24.08;;;;;;;;;;5035851;28;20013;-65
2021/01/30 16:04:34;;;;;;;36.67;22.40;;;;;;;;;;5034224;28;20071;-64
2021/01/30 16:07:00;;;;;;;32.58;21.38;;;;;;;;;;5035517;28;20033;-65
2021/01/30 16:09:26;;;;;;;29.63;17.42;;;;;;;;;;5036403;28;20087;-65
2021/01/30 16:11:52;;;;;;;30.58;18.25;;;;;;;;;;5035872;28;20022;-65
2021/01/30 16:14:17;;;;;;;37.67;22.38;;;;;;;;;;5034775;28;20128;-64
2021/01/30 16:16:43;;;;;;;25.02;17.60;;;;;;;;;;5035734;28;20013;-64
2021/01/30 16:19:10;;;;;;;28.45;17.80;;;;;;;;;;5035659;28;20053;-65
2021/01/30 16:21:36;;;;;;;33.15;20.35;;;;;;;;;;5035934;28;20022;-64
2021/01/30 16:24:02;;;;;;;29.17;17.80;;;;;;;;;;5034850;28;20372;-65
2021/01/30 16:26:28;;;;;;;27.85;18.02;;;;;;;;;;5035817;28;20036;-65
2021/01/30 16:28:53;;;;;;;26.40;16.83;;;;;;;;;;5035471;28;20034;-64
2021/01/30 16:31:18;;;;;;;29.20;18.58;;;;;;;;;;5034182;28;20122;-64
2021/01/30 16:33:44;;;;;;;23.75;16.10;;;;;;;;;;5032961;28;20503;-64
2021/01/30 16:36:09;;;;;;;29.00;18.55;;;;;;;;;;5035679;28;20483;-64
2021/01/30 16:38:35;;;;;;;27.75;17.55;;;;;;;;;;5035466;28;20115;-64
2021/01/30 16:41:00;;;;;;;26.13;16.38;;;;;;;;;;5035396;28;20375;-64
2021/01/30 16:43:26;;;;;;;22.52;15.82;;;;;;;;;;5035679;28;20087;-64
2021/01/30 16:45:52;;;;;;;27.08;16.52;;;;;;;;;;5035263;28;20087;-63
2021/01/30 16:48:18;;;;;;;26.98;17.20;;;;;;;;;;5035665;28;20064;-63
2021/01/30 16:50:43;;;;;;;26.05;16.05;;;;;;;;;;5035237;28;20464;-64
2021/01/30 16:53:09;;;;;;;24.92;14.63;;;;;;;;;;5035558;28;20489;-63
2021/01/30 16:55:34;;;;;;;23.10;15.05;;;;;;;;;;5035310;28;20021;-63
2021/01/30 16:58:00;;;;;;;25.83;15.93;;;;;;;;;;5034268;28;20036;-64
2021/01/30 17:00:30;;;;;;;22.55;14.75;;;;;;;;;;5035011;28;20032;-64
2021/01/30 17:02:58;;;;;;;29.15;17.40;;;;;;;;;;5034041;28;20045;-62
2021/01/30 17:05:25;;;;;;;36.15;22.15;;;;;;;;;;5033900;28;20036;-63
2021/01/30 17:07:51;;;;;;;33.90;19.83;;;;;;;;;;5035000;28;20126;-64
2021/01/30 17:10:16;;;;;;;35.60;22.27;;;;;;;;;;5033832;28;20448;-63
2021/01/30 17:12:42;;;;;;;32.72;21.70;;;;;;;;;;5034295;28;20033;-64
2021/01/30 17:15:08;;;;;;;36.03;22.17;;;;;;;;;;5034863;28;20487;-63
2021/01/30 17:17:34;;;;;;;37.90;23.13;;;;;;;;;;5034336;28;20034;-63
2021/01/30 17:19:59;;;;;;;33.42;20.45;;;;;;;;;;5034999;28;20036;-63
2021/01/30 17:22:25;;;;;;;35.83;21.77;;;;;;;;;;5034505;28;20025;-64
2021/01/30 17:24:51;;;;;;;39.42;24.40;;;;;;;;;;5034429;28;20083;-64
2021/01/30 17:27:16;;;;;;;34.72;21.70;;;;;;;;;;5034433;28;20059;-63
2021/01/30 17:29:42;;;;;;;34.97;23.10;;;;;;;;;;5034654;28;20460;-64
2021/01/30 17:32:07;;;;;;;34.03;21.77;;;;;;;;;;5033111;28;20506;-63
2021/01/30 17:34:34;;;;;;;34.95;21.00;;;;;;;;;;5031902;28;20025;-68
2021/01/30 17:36:59;;;;;;;34.38;21.15;;;;;;;;;;5034366;28;20029;-68
2021/01/30 17:39:25;;;;;;;34.15;20.40;;;;;;;;;;5034334;28;20372;-68
2021/01/30 17:41:52;;;;;;;38.53;23.23;;;;;;;;;;5034625;28;20086;-68
2021/01/30 17:44:18;;;;;;;36.30;22.27;;;;;;;;;;5034399;28;20025;-68
2021/01/30 17:46:43;;;;;;;41.75;24.67;;;;;;;;;;5034262;28;20048;-68
2021/01/30 17:49:08;;;;;;;36.17;23.25;;;;;;;;;;5033940;28;20021;-68
2021/01/30 17:51:34;;;;;;;42.88;23.45;;;;;;;;;;5032357;28;20124;-68
2021/01/30 17:53:59;;;;;;;34.30;21.58;;;;;;;;;;5034043;28;20044;-68
2021/01/30 17:56:25;;;;;;;33.35;20.25;;;;;;;;;;5034214;28;20035;-68
2021/01/30 17:58:50;;;;;;;31.17;20.98;;;;;;;;;;5034404;28;20021;-68
2021/01/30 18:01:16;;;;;;;31.88;20.55;;;;;;;;;;5033865;28;20105;-68
2021/01/30 18:03:41;;;;;;;35.03;21.10;;;;;;;;;;5033955;28;20032;-68
2021/01/30 18:06:09;;;;;;;40.63;23.02;;;;;;;;;;5033007;28;20092;-68
2021/01/30 18:08:35;;;;;;;39.20;23.50;;;;;;;;;;5034230;28;20124;-69
2021/01/30 18:11:01;;;;;;;43.42;25.40;;;;;;;;;;5033923;28;20025;-69
2021/01/30 18:13:27;;;;;;;48.08;26.58;;;;;;;;;;5033791;28;20072;-69
2021/01/30 18:15:54;;;;;;;46.13;26.00;;;;;;;;;;5034154;28;20108;-69
2021/01/30 18:18:19;;;;;;;45.90;23.90;;;;;;;;;;5032273;28;20063;-69
2021/01/30 18:20:45;;;;;;;41.13;23.88;;;;;;;;;;5033598;28;20018;-69
2021/01/30 18:23:13;;;;;;;41.97;24.10;;;;;;;;;;5032531;28;20029;-65
2021/01/30 18:25:39;;;;;;;40.13;24.35;;;;;;;;;;5033399;28;20029;-65
2021/01/30 18:28:07;;;;;;;40.15;23.55;;;;;;;;;;5032271;28;20029;-67
2021/01/30 18:30:32;;;;;;;41.10;24.42;;;;;;;;;;5033409;28;20440;-67
2021/01/30 18:33:00;;;;;;;38.00;22.85;;;;;;;;;;5033155;28;20111;-66
2021/01/30 18:35:26;;;;;;;36.63;21.67;;;;;;;;;;5032890;28;20090;-66
2021/01/30 18:37:51;;;;;;;37.53;22.92;;;;;;;;;;5033204;28;20460;-67
2021/01/30 18:40:18;;;;;;;42.13;23.95;;;;;;;;;;5031882;28;20029;-66
2021/01/30 18:42:44;;;;;;;47.80;26.50;;;;;;;;;;5033229;28;20357;-66
2021/01/30 18:45:10;;;;;;;53.13;29.08;;;;;;;;;;5031600;28;20116;-66
2021/01/30 18:47:36;;;;;;;38.55;23.00;;;;;;;;;;5032442;28;20062;-67
2021/01/30 18:50:05;;;;;;;35.38;21.63;;;;;;;;;;5033812;28;20076;-66
2021/01/30 18:52:32;;;;;;;32.42;21.33;;;;;;;;;;5033147;28;20010;-67
2021/01/30 18:54:57;;;;;;;34.03;21.23;;;;;;;;;;5033388;28;20025;-67
2021/01/30 18:57:24;;;;;;;35.53;21.25;;;;;;;;;;5032633;28;20100;-67
2021/01/30 18:59:51;;;;;;;35.95;21.75;;;;;;;;;;5033272;28;20052;-67
2021/01/30 19:02:17;;;;;;;33.15;21.30;;;;;;;;;;5032893;28;20028;-68
2021/01/30 19:04:43;;;;;;;31.73;20.17;;;;;;;;;;5035697;28;20112;-67
2021/01/30 19:07:08;;;;;;;38.72;21.70;;;;;;;;;;5037389;28;20028;-68
2021/01/30 19:09:35;;;;;;;32.85;20.52;;;;;;;;;;5037173;28;20116;-68
2021/01/30 19:12:00;;;;;;;35.53;21.42;;;;;;;;;;5037224;28;20060;-68
2021/01/30 19:14:25;;;;;;;33.22;20.67;;;;;;;;;;5037062;28;20061;-68
2021/01/30 19:16:54;;;;;;;39.67;23.00;;;;;;;;;;5036601;28;20041;-68
2021/01/30 19:19:21;;;;;;;37.92;22.85;;;;;;;;;;5036775;28;20411;-68
2021/01/30 19:21:47;;;;;;;45.22;26.70;;;;;;;;;;5035860;28;20033;-68
2021/01/30 19:24:14;;;;;;;42.35;24.15;;;;;;;;;;5036693;28;20033;-68
2021/01/30 19:26:41;;;;;;;39.72;23.60;;;;;;;;;;5035658;28;20156;-68
2021/01/30 19:29:07;;;;;;;43.53;24.33;;;;;;;;;;5035514;28;20040;-67
2021/01/30 19:31:38;;;;;;;40.97;24.85;;;;;;;;;;5036145;28;20484;-67
2021/01/30 19:34:04;;;;;;;41.05;23.63;;;;;;;;;;5035400;28;20041;-68
2021/01/30 19:36:32;;;;;;;41.72;23.88;;;;;;;;;;5036978;28;20028;-68
2021/01/30 19:39:00;;;;;;;46.53;25.80;;;;;;;;;;5036798;28;20026;-67
2021/01/30 19:41:25;;;;;;;49.50;26.35;;;;;;;;;;5028433;28;20024;-67
2021/01/30 19:43:51;;;;;;;48.95;27.70;;;;;;;;;;5033682;28;20033;-68
2021/01/30 19:46:17;;;;;;;53.67;28.10;;;;;;;;;;5034600;28;20022;-68
2021/01/30 19:48:43;;;;;;;46.95;27.30;;;;;;;;;;5034232;28;20037;-67
2021/01/30 19:51:09;;;;;;;43.00;26.77;;;;;;;;;;5034270;28;20018;-67
2021/01/30 19:53:35;;;;;;;37.45;23.27;;;;;;;;;;5034189;28;20436;-67
2021/01/30 19:56:02;;;;;;;38.28;23.10;;;;;;;;;;5034401;28;20044;-67
2021/01/30 19:58:28;;;;;;;38.42;21.77;;;;;;;;;;5034268;28;20108;-67
2021/01/30 20:00:53;;;;;;;32.67;21.02;;;;;;;;;;5033940;28;20105;-68
2021/01/30 20:03:20;;;;;;;33.25;21.17;;;;;;;;;;5034029;28;20035;-68
2021/01/30 20:05:47;;;;;;;35.28;21.75;;;;;;;;;;5034527;28;20040;-68
2021/01/30 20:08:14;;;;;;;36.25;22.65;;;;;;;;;;5033864;28;20029;-68
2021/01/30 20:10:42;;;;;;;45.80;25.92;;;;;;;;;;5033707;28;20029;-67
2021/01/30 20:13:09;;;;;;;46.55;26.77;;;;;;;;;;5034074;28;20120;-67
2021/01/30 20:15:35;;;;;;;44.20;24.52;;;;;;;;;;5032063;28;20017;-67
2021/01/30 20:18:01;;;;;;;41.95;22.65;;;;;;;;;;5033392;28;20072;-68
2021/01/30 20:20:27;;;;;;;35.72;22.05;;;;;;;;;;5033666;28;20065;-68
2021/01/30 20:22:53;;;;;;;36.92;21.90;;;;;;;;;;5032847;28;20164;-68
2021/01/30 20:25:20;;;;;;;33.97;20.92;;;;;;;;;;5032783;28;20021;-68
2021/01/30 20:27:47;;;;;;;38.55;22.10;;;;;;;;;;5032518;28;20034;-68
2021/01/30 20:30:15;;;;;;;39.35;22.35;;;;;;;;;;5033272;28;20024;-68
2021/01/30 20:32:41;;;;;;;38.58;23.15;;;;;;;;;;5033698;28;20059;-68
2021/01/30 20:35:07;;;;;;;41.85;22.58;;;;;;;;;;5033459;28;20030;-68
2021/01/30 20:37:33;;;;;;;38.00;21.88;;;;;;;;;;5031623;28;20038;-68
2021/01/30 20:39:59;;;;;;;39.30;22.25;;;;;;;;;;5033495;28;20022;-68
2021/01/30 20:42:25;;;;;;;36.80;22.55;;;;;;;;;;5033607;28;20547;-68
2021/01/30 20:44:50;;;;;;;36.15;20.67;;;;;;;;;;5033334;28;20079;-68
